Decoded Metar for KW96 ( in ) (IATA:) | Meteo·Mobile Aviation Weather
aviador You're here:

KW96 Decoded Metar

in
Report Time2019-10-18 13:35:00
UTC Time2019-10-18 13:50:27
Flight Rules vfr VFR
WindCalm
Visibility9999 m
Phenomena:N/A
Clouds:N/A
Expected CloudBase > 1,600 ft AGL from Temp-Dew spread
CeilingNone
Temp09°C
Dew Point05°C (76% RH)
AAT7.9°C
QNH1016 hPa
Raw Report
METAR KW96 181335Z AUTO 00000KT 10SM CLR 09/05 A3000 RMK AO1 T00940051=

Extra information for KW96:More info

Social comments